PAKT

Ketchikan International Airport

Ketchikan, Alaska, USA
PAKT 202322Z 2100/2124 16010KT 5SM -RA SCT015 BKN022 OVC030 WS020/16035KT TEMPO 2100/2104 15015G25KT 4SM RA BR BKN015 FM210600 14008KT 6SM -SHRA BKN015 BKN025 OVC040 FM211200 31008KT P6SM -SHRA SCT015 BKN025 OVC040 FM212000 12008KT P6SM -SHRA SCT020 OVC040 AMD LTD TO CLD VIS AND WIND 2106/2115
Issued Valid From Valid To
Apr-20 @ 23:22 UTC
(5 hours ago)
Apr-21 @ 00:00 UTC
(4 hours ago)
Apr-22 @ 00:00 UTC
(in 20 hours)
Apr-21 @ 00:00 to Apr-21 @ 06:00
PAKT 202322Z 2100/2124 16010KT 5SM -RA SCT015 BKN022 OVC030 WS020/16035KT
Wind Visibility Clouds Conditions
160° at 10 knots
 Wind shear 2,000' AGL from 160° at 35 knots
5 miles
  • Scattered at 1,500' AGL
  • Broken at 2,200' AGL
  • Overcast at 3,000' AGL
  • Light Rain
Temporary Apr-21 @ 00:00 to Apr-21 @ 04:00
TEMPO 2100/2104 15015G25KT 4SM RA BR BKN015
Wind Visibility Clouds Conditions
150° at 15 knots
 Gusting to 25 knots
4 miles
  • Broken at 1,500' AGL
  • Rain
  • Mist
From Apr-21 @ 06:00 to Apr-21 @ 12:00
FM210600 14008KT 6SM -SHRA BKN015 BKN025 OVC040
Wind Visibility Clouds Conditions
140° at 8 knots 6 miles
  • Broken at 1,500' AGL
  • Broken at 2,500' AGL
  • Overcast at 4,000' AGL
  • Light Rain
From Apr-21 @ 12:00 to Apr-21 @ 20:00
FM211200 31008KT P6SM -SHRA SCT015 BKN025 OVC040
Wind Visibility Clouds Conditions
310° at 8 knots Greater than 6 miles
  • Scattered at 1,500' AGL
  • Broken at 2,500' AGL
  • Overcast at 4,000' AGL
  • Light Rain
From Apr-21 @ 20:00 to Apr-22 @ 00:00
FM212000 12008KT P6SM -SHRA SCT020 OVC040 AMD LTD TO CLD VIS AND WIND 2106/2115
Wind Visibility Clouds Conditions
120° at 8 knots Greater than 6 miles
  • Scattered at 2,000' AGL
  • Overcast at 4,000' AGL
  • Light Rain
PAKT 202322Z 2100/2124 16010KT 5SM -RA SCT015 BKN022 OVC030 WS020/16035KT TEMPO 2100/2104 15015G25KT 4SM RA BR BKN015 FM210600 14008KT 6SM -SHRA BKN015 BKN025 OVC040 FM211200 31008KT P6SM -SHRA SCT015 BKN025 OVC040 FM212000 12008KT P6SM -SHRA SCT020 OVC040 AMD LTD TO CLD VIS AND WIND 2106/2115
Issued Apr-20 @ 23:22 UTC
(5 hours ago)
Valid From Apr-21 @ 00:00 UTC
(4 hours ago)
Valid To Apr-22 @ 00:00 UTC
(in 20 hours)
Apr-21 @ 00:00 - Apr-21 @ 06:00
Wind Visibility
160° at 10 knots 5 miles
Clouds
  • Scattered at 1,500' AGL
  • Broken at 2,200' AGL
  • Overcast at 3,000' AGL
Conditions
  • Light Rain
Temporary Apr-21 @ 00:00 - Apr-21 @ 04:00
Wind Visibility
150° at 15 knots
 Gusting to 25 knots
4 miles
Clouds
  • Broken at 1,500' AGL
Conditions
  • Rain
  • Mist
From Apr-21 @ 06:00 - Apr-21 @ 12:00
Wind Visibility
140° at 8 knots 6 miles
Clouds
  • Broken at 1,500' AGL
  • Broken at 2,500' AGL
  • Overcast at 4,000' AGL
Conditions
  • Light Rain
From Apr-21 @ 12:00 - Apr-21 @ 20:00
Wind Visibility
310° at 8 knots Greater than 6 miles
Clouds
  • Scattered at 1,500' AGL
  • Broken at 2,500' AGL
  • Overcast at 4,000' AGL
Conditions
  • Light Rain
From Apr-21 @ 20:00 - Apr-22 @ 00:00
Wind Visibility
120° at 8 knots Greater than 6 miles
Clouds
  • Scattered at 2,000' AGL
  • Overcast at 4,000' AGL
Conditions
  • Light Rain